Terminal Aerodrome Forecast
Issued by NWS Brownsville, TX

Home | Current Version | Previous Version | Text Only | Print | Product List | Glossary On
Versions: 1 2 3 4 5 6 7 8 9 10 11 12
009
FTUS44 KBRO 112339
TAFMFE
TAF
KMFE 112339Z 1200/1224 13017KT P6SM SKC
     FM120200 16009KT P6SM SKC
     FM121500 16012KT P6SM SCT050=

USA.gov is the U.S. government's official web portal to all federal, state and local government web resources and services.